地図

経路データ

SID SEASON NUMBER BASIN SUBBASIN NAME ISO_TIME NATURE LAT LON WMO_WIND WMO_PRES WMO_AGENCY TRACK_TYPE DIST2LAND LANDFALL IFLAG USA_AGENCY USA_ATCF_ID USA_LAT USA_LON USA_RECORD USA_STATUS USA_WIND USA_PRES USA_SSHS USA_R34_NE USA_R34_SE USA_R34_SW USA_R34_NW USA_R50_NE USA_R50_SE USA_R50_SW USA_R50_NW USA_R64_NE USA_R64_SE USA_R64_SW USA_R64_NW USA_POCI USA_ROCI USA_RMW USA_EYE TOKYO_LAT TOKYO_LON TOKYO_GRADE TOKYO_WIND TOKYO_PRES TOKYO_R50_DIR TOKYO_R50_LONG TOKYO_R50_SHORT TOKYO_R30_DIR TOKYO_R30_LONG TOKYO_R30_SHORT TOKYO_LAND CMA_LAT CMA_LON CMA_CAT CMA_WIND CMA_PRES HKO_LAT HKO_LON HKO_CAT HKO_WIND HKO_PRES NEWDELHI_LAT NEWDELHI_LON NEWDELHI_GRADE NEWDELHI_WIND NEWDELHI_PRES NEWDELHI_CI NEWDELHI_DP NEWDELHI_POCI REUNION_LAT REUNION_LON REUNION_TYPE REUNION_WIND REUNION_PRES REUNION_TNUM REUNION_CI REUNION_RMW REUNION_R34_NE REUNION_R34_SE REUNION_R34_SW REUNION_R34_NW REUNION_R50_NE REUNION_R50_SE REUNION_R50_SW REUNION_R50_NW REUNION_R64_NE REUNION_R64_SE REUNION_R64_SW REUNION_R64_NW BOM_LAT BOM_LON BOM_TYPE BOM_WIND BOM_PRES BOM_TNUM BOM_CI BOM_RMW BOM_R34_NE BOM_R34_SE BOM_R34_SW BOM_R34_NW BOM_R50_NE BOM_R50_SE BOM_R50_SW BOM_R50_NW BOM_R64_NE BOM_R64_SE BOM_R64_SW BOM_R64_NW BOM_ROCI BOM_POCI BOM_EYE BOM_POS_METHOD BOM_PRES_METHOD NADI_LAT NADI_LON NADI_CAT NADI_WIND NADI_PRES WELLINGTON_LAT WELLINGTON_LON WELLINGTON_WIND WELLINGTON_PRES DS824_LAT DS824_LON DS824_STAGE DS824_WIND DS824_PRES TD9636_LAT TD9636_LON TD9636_STAGE TD9636_WIND TD9636_PRES TD9635_LAT TD9635_LON TD9635_WIND TD9635_PRES TD9635_ROCI NEUMANN_LAT NEUMANN_LON NEUMANN_CLASS NEUMANN_WIND NEUMANN_PRES MLC_LAT MLC_LON MLC_CLASS MLC_WIND MLC_PRES USA_GUST BOM_GUST BOM_GUST_PER REUNION_GUST REUNION_GUST_PER USA_SEAHGT USA_SEARAD_NE USA_SEARAD_SE USA_SEARAD_SW USA_SEARAD_NW STORM_SPEED STORM_DIR
1858289N24311 1858 16 NA NA NOT_NAMED 1858-10-16 00:00:00 TS 24.0000 -49.4000 main 1790 1790 _____________O -1 24.0000 -49.4000 TD 30 9 53
1858289N24311 1858 16 NA NA NOT_NAMED 1858-10-16 03:00:00 TS 24.2727 -49.0005 main 1839 1839 _____________P -1 24.2727 -49.0005 TD 30 9 56
1858289N24311 1858 16 NA NA NOT_NAMED 1858-10-16 06:00:00 TS 24.5000 -48.6000 main 1884 1884 _____________O -1 24.5000 -48.6000 TD 30 8 62
1858289N24311 1858 16 NA NA NOT_NAMED 1858-10-16 09:00:00 TS 24.6574 -48.1997 main 1929 1929 _____________P -1 24.6574 -48.1997 TD 32 8 68
1858289N24311 1858 16 NA NA NOT_NAMED 1858-10-16 12:00:00 TS 24.8000 -47.8000 main 1971 1971 _____________O -1 24.8000 -47.8000 TS 35 8 65
1858289N24311 1858 16 NA NA NOT_NAMED 1858-10-16 15:00:00 TS 24.9999 -47.4000 main 2017 2017 _____________P -1 24.9999 -47.4000 TS 35 8 61
1858289N24311 1858 16 NA NA NOT_NAMED 1858-10-16 18:00:00 TS 25.2000 -47.0000 main 2062 2062 _____________O -1 25.2000 -47.0000 TS 35 8 64
1858289N24311 1858 16 NA NA NOT_NAMED 1858-10-16 21:00:00 TS 25.3499 -46.5998 main 2103 2103 _____________P -1 25.3499 -46.5998 TS 35 8 67
1858289N24311 1858 16 NA NA NOT_NAMED 1858-10-17 00:00:00 TS 25.5000 -46.2000 main 2148 2148 _____________O -1 25.5000 -46.2000 TS 35 8 64
1858289N24311 1858 16 NA NA NOT_NAMED 1858-10-17 03:00:00 TS 25.6999 -45.8000 main 2193 2193 _____________P -1 25.6999 -45.8000 TS 35 8 61
1858289N24311 1858 16 NA NA NOT_NAMED 1858-10-17 06:00:00 TS 25.9000 -45.4000 main 2238 2238 _____________O -1 25.9000 -45.4000 TS 35 8 64
1858289N24311 1858 16 NA NA NOT_NAMED 1858-10-17 09:00:00 TS 26.0499 -44.9923 main 2280 2280 _____________P -1 26.0499 -44.9923 TS 35 8 67
1858289N24311 1858 16 NA NA NOT_NAMED 1858-10-17 12:00:00 TS 26.2000 -44.6000 main 2325 2325 _____________O -1 26.2000 -44.6000 TS 35 8 63
1858289N24311 1858 16 NA NA NOT_NAMED 1858-10-17 15:00:00 TS 26.3924 -44.2424 main 2369 2369 _____________P -1 26.3924 -44.2424 TS 35 7 57
1858289N24311 1858 16 NA NA NOT_NAMED 1858-10-17 18:00:00 TS 26.6000 -43.9000 main 2372 2360 _____________O -1 26.6000 -43.9000 TS 35 7 57
1858289N24311 1858 16 NA NA NOT_NAMED 1858-10-17 21:00:00 TS 26.7999 -43.5499 main 2363 2349 _____________P -1 26.7999 -43.5499 TS 35 7 57
1858289N24311 1858 16 NA NA NOT_NAMED 1858-10-18 00:00:00 TS 27.0000 -43.2000 main 2352 2341 _____________O -1 27.0000 -43.2000 TS 35 7 57
1858289N24311 1858 16 NA NA NOT_NAMED 1858-10-18 03:00:00 TS 27.2074 -42.8499 main 2344 2330 _____________P -1 27.2074 -42.8499 TS 37 7 57
1858289N24311 1858 16 NA NA NOT_NAMED 1858-10-18 06:00:00 TS 27.4000 -42.5000 main 2334 2323 _____________O -1 27.4000 -42.5000 TS 40 7 60
1858289N24311 1858 16 NA NA NOT_NAMED 1858-10-18 09:00:00 TS 27.5649 -42.1499 main 2327 2324 _____________P -1 27.5649 -42.1499 TS 40 7 64
1858289N24311 1858 16 NA NA NOT_NAMED 1858-10-18 12:00:00 TS 27.7000 -41.8000 main 2328 2325 _____________O -1 27.7000 -41.8000 TS 40 7 69
1858289N24311 1858 16 NA NA NOT_NAMED 1858-10-18 15:00:00 TS 27.8074 -41.4499 main 2332 2326 _____________P -1 27.8074 -41.4499 TS 40 7 72
1858289N24311 1858 16 NA NA NOT_NAMED 1858-10-18 18:00:00 TS 27.9000 -41.1000 main 2334 2332 _____________O -1 27.9000 -41.1000 TS 40 6 73
1858289N24311 1858 16 NA NA NOT_NAMED 1858-10-18 21:00:00 TS 27.9999 -40.7499 main 2336 2306 _____________P -1 27.9999 -40.7499 TS 40 6 72
1858289N24311 1858 16 NA NA NOT_NAMED 1858-10-19 00:00:00 TS 28.1000 -40.4000 main 2306 2276 _____________O -1 28.1000 -40.4000 TS 40 6 72
1858289N24311 1858 16 NA NA NOT_NAMED 1858-10-19 03:00:00 TS 28.1999 -40.0499 main 2266 2235 _____________P -1 28.1999 -40.0499 TS 42 6 72
1858289N24311 1858 16 NA NA NOT_NAMED 1858-10-19 06:00:00 TS 28.3000 -39.7000 main 2235 2205 _____________O -1 28.3000 -39.7000 TS 45 6 74
1858289N24311 1858 16 NA NA NOT_NAMED 1858-10-19 09:00:00 TS 28.3775 -39.3423 main 2196 2165 _____________P -1 28.3775 -39.3423 TS 45 6 72
1858289N24311 1858 16 NA NA NOT_NAMED 1858-10-19 12:00:00 TS 28.5000 -39.0000 main 2165 2134 _____________O -1 28.5000 -39.0000 TS 45 7 58
1858289N24311 1858 16 NA NA NOT_NAMED 1858-10-19 15:00:00 TS 28.7274 -38.6925 main 2134 2103 _____________P -1 28.7274 -38.6925 TS 45 7 46
1858289N24311 1858 16 NA NA NOT_NAMED 1858-10-19 18:00:00 TS 29.0000 -38.4000 main 2103 2073 _____________O -1 29.0000 -38.4000 TS 45 7 45
1858289N24311 1858 16 NA NA NOT_NAMED 1858-10-19 21:00:00 TS 29.2499 -38.0999 main 2073 2043 _____________P -1 29.2499 -38.0999 TS 45 7 46
1858289N24311 1858 16 NA NA NOT_NAMED 1858-10-20 00:00:00 TS 29.5000 -37.8000 main 2043 2013 _____________O -1 29.5000 -37.8000 TS 45 7 46
1858289N24311 1858 16 NA NA NOT_NAMED 1858-10-20 03:00:00 TS 29.7499 -37.4999 main 2013 1984 _____________P -1 29.7499 -37.4999 TS 45 7 46
1858289N24311 1858 16 NA NA NOT_NAMED 1858-10-20 06:00:00 TS 30.0000 -37.2000 main 1984 1956 _____________O -1 30.0000 -37.2000 TS 45 7 47
1858289N24311 1858 16 NA NA NOT_NAMED 1858-10-20 09:00:00 TS 30.2349 -36.8997 main 1956 1928 _____________P -1 30.2349 -36.8997 TS 45 7 46
1858289N24311 1858 16 NA NA NOT_NAMED 1858-10-20 12:00:00 TS 30.5000 -36.6000 main 1928 1901 _____________O -1 30.5000 -36.6000 TS 45 8 41
1858289N24311 1858 16 NA NA NOT_NAMED 1858-10-20 15:00:00 TS 30.8425 -36.2926 main 1901 1875 _____________P -1 30.8425 -36.2926 TS 45 9 36
1858289N24311 1858 16 NA NA NOT_NAMED 1858-10-20 18:00:00 TS 31.2000 -36.0000 main 1876 1859 _____________O -1 31.2000 -36.0000 TS 45 8 35
1858289N24311 1858 16 NA NA NOT_NAMED 1858-10-20 21:00:00 TS 31.5074 -35.7422 main 1851 1836 _____________P -1 31.5074 -35.7422 TS 45 7 35
1858289N24311 1858 16 NA NA NOT_NAMED 1858-10-21 00:00:00 ET 31.8000 -35.5000 main 1836 1821 _____________O -1 31.8000 -35.5000 EX 45 7 35
1858289N24311 1858 16 NA NA NOT_NAMED 1858-10-21 03:00:00 ET 32.0999 -35.2498 main 1813 1798 _____________P -1 32.0999 -35.2498 EX 45 7 35
1858289N24311 1858 16 NA NA NOT_NAMED 1858-10-21 06:00:00 ET 32.4000 -35.0000 main 1800 1785 _____________O -1 32.4000 -35.0000 EX 45 7 35
1858289N24311 1858 16 NA NA NOT_NAMED 1858-10-21 09:00:00 ET 32.7001 -34.7503 main 1787 1767 _____________P -1 32.7001 -34.7503 EX 45 7 35
1858289N24311 1858 16 NA NA NOT_NAMED 1858-10-21 12:00:00 ET 33.0000 -34.5000 main 1767 _____________O -1 33.0000 -34.5000 EX 45 7 35

IBTrACS Databaseについて

本データベースは、米国NOAAが公開する1842年以降の世界の熱帯低気圧のベストトラックデータアーカイブInternational Best Track Archive for Climate Stewardship (IBTrACS)を、ウェブで閲覧しやすい形式に変換したものです。

最終更新日:2021-12-08